Time;durP1;ratioP1;P1;durP2;ratioP2;P2;SDS_P1;SDS_P2;PMS_P1;PMS_P2;Temp;Humidity;BMP_temperature;BMP_pressure;BME280_temperature;BME280_humidity;BME280_pressure;Samples;Min_cycle;Max_cycle;Signal;HPM_P1;HPM_P2
2021/10/27 00:00:25;;;;;;;17.67;12.40;;;;;;;9.34;62.05;100620.06;5049939;28;20084;-37
2021/10/27 00:02:50;;;;;;;16.83;12.48;;;;;;;9.37;62.41;100605.63;5049966;28;20372;-37
2021/10/27 00:05:16;;;;;;;19.00;12.00;;;;;;;9.41;61.82;100611.44;5049619;28;20165;-37
2021/10/27 00:07:41;;;;;;;21.45;12.75;;;;;;;9.15;63.15;100600.09;5049645;28;20033;-37
2021/10/27 00:10:07;;;;;;;19.40;12.30;;;;;;;9.13;62.83;100603.91;5049669;28;20407;-38
2021/10/27 00:12:33;;;;;;;17.83;11.77;;;;;;;9.25;62.36;100591.91;5049671;28;20036;-37
2021/10/27 00:14:59;;;;;;;17.67;11.60;;;;;;;9.20;62.43;100602.22;5049578;28;20127;-37
2021/10/27 00:17:24;;;;;;;16.85;11.60;;;;;;;9.11;63.09;100595.31;5049478;28;20459;-37
2021/10/27 00:19:50;;;;;;;17.95;11.48;;;;;;;9.15;63.01;100600.09;5049785;28;20449;-37
2021/10/27 00:22:15;;;;;;;17.92;11.57;;;;;;;9.02;63.36;100599.00;5049401;28;20028;-37
2021/10/27 00:24:41;;;;;;;22.83;12.07;;;;;;;9.19;62.81;100598.75;5049487;28;20033;-37
2021/10/27 00:27:07;;;;;;;19.92;11.35;;;;;;;9.36;62.56;100594.16;5049540;28;20079;-37
2021/10/27 00:29:34;;;;;;;18.73;11.43;;;;;;;9.17;62.25;100600.72;5048008;28;20025;-37
2021/10/27 00:31:59;;;;;;;19.13;11.60;;;;;;;9.07;63.11;100597.47;5049620;28;20021;-37
2021/10/27 00:34:25;;;;;;;18.38;11.85;;;;;;;9.06;62.76;100595.81;5049528;28;20056;-37
2021/10/27 00:36:51;;;;;;;19.27;11.07;;;;;;;9.00;62.92;100596.50;5049151;28;20053;-37
2021/10/27 00:39:17;;;;;;;17.52;11.45;;;;;;;9.22;62.43;100596.75;5049161;28;20434;-37
2021/10/27 00:41:43;;;;;;;21.42;11.50;;;;;;;9.13;63.17;100598.59;5049591;28;20532;-37
2021/10/27 00:44:19;;;;;;;18.08;11.75;;;;;;;9.23;62.86;100601.06;5049281;28;20434;-37
2021/10/27 00:46:44;;;;;;;18.98;11.27;;;;;;;9.14;63.06;100597.63;5049433;28;20025;-37
2021/10/27 00:49:10;;;;;;;16.77;10.73;;;;;;;9.22;62.70;100594.91;5049205;28;20378;-37
2021/10/27 00:51:36;;;;;;;16.20;10.63;;;;;;;9.28;62.33;100606.69;5049055;28;20025;-37
2021/10/27 00:54:01;;;;;;;17.05;10.85;;;;;;;9.23;62.66;100595.75;5049621;28;20094;-37
2021/10/27 00:56:27;;;;;;;15.25;10.40;;;;;;;9.27;62.46;100592.56;5050270;28;20489;-37
2021/10/27 00:58:53;;;;;;;15.70;10.25;;;;;;;9.15;62.52;100584.16;5035365;28;20055;-37
2021/10/27 01:01:18;;;;;;;16.30;10.60;;;;;;;9.24;62.59;100592.91;5053536;28;20025;-37
2021/10/27 01:03:44;;;;;;;16.58;10.85;;;;;;;9.39;62.10;100600.97;5053211;28;20021;-37
2021/10/27 01:06:09;;;;;;;16.20;10.98;;;;;;;9.16;62.49;100595.63;5052998;28;20032;-37
2021/10/27 01:08:35;;;;;;;15.73;10.38;;;;;;;9.20;62.70;100594.28;5052915;28;20374;-37
2021/10/27 01:11:01;;;;;;;19.50;10.80;;;;;;;9.11;62.91;100597.97;5052817;28;20021;-37
2021/10/27 01:13:27;;;;;;;17.50;10.35;;;;;;;9.29;62.76;100593.22;5052751;28;20104;-37
2021/10/27 01:15:52;;;;;;;17.35;10.65;;;;;;;9.22;62.50;100594.09;5053238;28;20373;-37
2021/10/27 01:18:17;;;;;;;16.92;9.90;;;;;;;9.22;62.70;100589.59;5053432;28;20025;-38
2021/10/27 01:20:43;;;;;;;17.25;11.27;;;;;;;9.01;63.58;100587.56;5052888;28;20039;-38
2021/10/27 01:23:08;;;;;;;17.35;10.68;;;;;;;9.07;63.75;100586.84;5052837;28;20047;-38
2021/10/27 01:25:34;;;;;;;19.05;10.65;;;;;;;9.17;63.47;100589.28;5053074;28;20024;-38
2021/10/27 01:28:00;;;;;;;17.77;11.30;;;;;;;9.14;63.43;100592.31;5053386;28;20028;-38
2021/10/27 01:30:25;;;;;;;16.67;11.07;;;;;;;9.01;63.77;100587.56;5053153;28;20158;-37
2021/10/27 01:32:51;;;;;;;18.80;10.60;;;;;;;8.90;64.40;100587.94;5053308;28;20057;-37
2021/10/27 01:35:16;;;;;;;20.08;11.38;;;;;;;8.94;63.95;100583.94;5052630;28;20524;-37
2021/10/27 01:37:42;;;;;;;15.90;10.57;;;;;;;8.86;64.36;100582.13;5052774;28;20108;-37
2021/10/27 01:40:10;;;;;;;17.02;11.32;;;;;;;8.97;64.18;100583.59;5052293;28;20464;-37
2021/10/27 01:42:37;;;;;;;16.58;10.88;;;;;;;8.98;64.26;100583.38;5052471;28;20353;-37
2021/10/27 01:45:03;;;;;;;19.23;11.68;;;;;;;9.28;63.70;100591.56;5052560;28;20133;-37
2021/10/27 01:47:29;;;;;;;18.85;11.15;;;;;;;9.17;63.99;100586.63;5052560;28;20531;-37
2021/10/27 01:49:54;;;;;;;18.70;12.27;;;;;;;8.99;65.26;100586.91;5052840;28;20029;-37
2021/10/27 01:52:20;;;;;;;19.15;12.00;;;;;;;8.87;65.77;100581.16;5052687;28;20433;-37
2021/10/27 01:54:45;;;;;;;18.63;11.82;;;;;;;9.08;65.19;100582.34;5052575;28;20024;-37
2021/10/27 01:57:11;;;;;;;21.63;12.18;;;;;;;8.95;65.72;100578.44;5052171;28;20029;-37
2021/10/27 01:59:36;;;;;;;15.98;11.20;;;;;;;9.14;64.77;100576.38;5052793;28;20009;-37
2021/10/27 02:02:02;;;;;;;20.75;12.43;;;;;;;9.11;65.03;100582.03;5052721;28;20043;-37
2021/10/27 02:04:27;;;;;;;18.17;11.82;;;;;;;9.17;64.63;100578.66;5051923;28;20033;-37
2021/10/27 02:06:53;;;;;;;18.77;11.85;;;;;;;9.05;65.55;100574.75;5051338;28;20032;-37
2021/10/27 02:09:18;;;;;;;18.52;11.40;;;;;;;9.15;64.43;100578.84;5051593;28;20028;-37
2021/10/27 02:11:44;;;;;;;17.15;11.38;;;;;;;9.18;64.00;100577.69;5052179;28;20453;-37
2021/10/27 02:14:10;;;;;;;23.20;11.32;;;;;;;9.04;64.37;100584.53;5052017;28;20020;-37
2021/10/27 02:16:35;;;;;;;17.58;11.20;;;;;;;9.13;64.01;100586.16;5052487;28;20424;-37
2021/10/27 02:19:01;;;;;;;15.70;10.50;;;;;;;9.14;63.66;100589.66;5052084;28;20048;-37
2021/10/27 02:21:26;;;;;;;19.98;10.88;;;;;;;9.26;63.29;100590.91;5051834;28;20048;-37
2021/10/27 02:23:52;;;;;;;17.75;10.88;;;;;;;9.10;63.77;100585.66;5051821;28;20021;-37
2021/10/27 02:26:21;;;;;;;17.45;10.70;;;;;;;9.09;63.80;100592.00;5051673;28;20083;-37
2021/10/27 02:28:46;;;;;;;16.27;10.90;;;;;;;9.21;63.21;100590.59;5051780;28;20202;-37
2021/10/27 02:31:12;;;;;;;17.50;10.65;;;;;;;9.20;63.53;100586.31;5052504;28;20100;-37
2021/10/27 02:33:37;;;;;;;16.83;11.18;;;;;;;9.13;63.45;100596.78;5051853;28;20041;-37
2021/10/27 02:36:03;;;;;;;18.80;10.77;;;;;;;9.05;63.39;100596.00;5051614;28;20094;-37
2021/10/27 02:38:28;;;;;;;16.67;10.70;;;;;;;9.17;63.16;100591.94;5051575;28;20472;-37
2021/10/27 02:40:53;;;;;;;14.90;10.30;;;;;;;8.97;63.79;100605.66;5049798;28;20031;-37
2021/10/27 02:43:20;;;;;;;18.00;10.57;;;;;;;9.05;63.79;100604.78;5050055;28;20025;-37
2021/10/27 02:45:48;;;;;;;17.05;11.23;;;;;;;9.43;62.72;100596.16;5051243;28;20032;-37
2021/10/27 02:48:14;;;;;;;18.65;11.02;;;;;;;9.55;61.59;100600.03;5051206;28;20514;-37
2021/10/27 02:50:40;;;;;;;16.48;11.02;;;;;;;9.37;62.16;100598.50;5051350;28;20021;-37
2021/10/27 02:53:06;;;;;;;18.50;10.68;;;;;;;9.25;62.80;100607.84;5051114;28;20123;-37
2021/10/27 02:55:31;;;;;;;16.42;10.32;;;;;;;9.27;62.87;100605.84;5051223;28;20029;-37
2021/10/27 02:57:59;;;;;;;15.55;10.25;;;;;;;9.33;62.65;100602.50;5051275;28;20029;-37
2021/10/27 03:00:25;;;;;;;19.10;10.68;;;;;;;9.16;62.48;100593.78;5051356;28;20013;-37
2021/10/27 03:02:50;;;;;;;17.23;11.35;;;;;;;9.18;63.49;100610.38;5051232;28;20032;-37
2021/10/27 03:05:16;;;;;;;16.08;10.75;;;;;;;9.14;63.07;100603.75;5051038;28;20036;-37
2021/10/27 03:07:42;;;;;;;16.65;11.13;;;;;;;9.14;63.25;100609.06;5050885;28;20029;-37
2021/10/27 03:10:08;;;;;;;15.40;11.07;;;;;;;9.29;63.14;100609.16;5050468;28;20021;-37
2021/10/27 03:12:33;;;;;;;17.33;11.43;;;;;;;9.02;63.92;100610.44;5051035;28;20028;-37
2021/10/27 03:14:59;;;;;;;18.10;11.60;;;;;;;9.01;63.91;100603.47;5050897;28;20473;-37
2021/10/27 03:17:24;;;;;;;16.92;10.98;;;;;;;8.91;64.27;100610.81;5050692;28;20091;-37
2021/10/27 03:19:50;;;;;;;15.75;10.50;;;;;;;9.04;63.78;100613.75;5050742;28;20017;-37
2021/10/27 03:22:15;;;;;;;16.77;10.75;;;;;;;9.17;63.35;100613.19;5050431;28;20047;-37
2021/10/27 03:24:41;;;;;;;16.65;10.50;;;;;;;9.14;63.31;100614.38;5050385;28;20524;-37
2021/10/27 03:27:06;;;;;;;19.77;11.05;;;;;;;9.26;62.96;100622.78;5049036;28;20028;-37
2021/10/27 03:29:32;;;;;;;15.45;10.23;;;;;;;9.36;62.73;100618.06;5050425;28;20050;-38
2021/10/27 03:31:57;;;;;;;15.32;10.45;;;;;;;9.03;63.83;100620.06;5049178;28;20021;-39
2021/10/27 03:34:22;;;;;;;15.63;10.57;;;;;;;9.12;63.46;100623.50;5050424;28;20053;-38
2021/10/27 03:36:48;;;;;;;25.70;15.70;;;;;;;9.21;63.18;100619.81;5050253;28;20048;-37
2021/10/27 03:39:13;;;;;;;22.58;13.65;;;;;;;9.08;63.12;100622.19;5050185;28;20519;-37
2021/10/27 03:41:39;;;;;;;29.90;17.88;;;;;;;9.21;62.46;100619.81;5050521;28;20035;-38
2021/10/27 03:44:05;;;;;;;145.70;65.13;;;;;;;9.47;62.18;100622.19;5049795;28;20017;-37
2021/10/27 03:46:32;;;;;;;28.45;16.40;;;;;;;9.32;62.12;100627.41;5050288;28;20503;-38
2021/10/27 03:48:57;;;;;;;15.48;10.23;;;;;;;9.25;62.54;100622.94;5049905;28;20032;-38
2021/10/27 03:51:23;;;;;;;17.95;9.93;;;;;;;10.07;72.61;100625.09;5049633;28;20028;-38
2021/10/27 03:53:48;;;;;;;15.20;10.07;;;;;;;9.76;61.34;100613.50;5050178;28;20031;-38
2021/10/27 03:56:14;;;;;;;13.70;9.48;;;;;;;9.48;61.46;100615.03;5032341;28;20028;-38
2021/10/27 03:58:39;;;;;;;15.57;10.02;;;;;;;9.50;61.77;100618.31;5050752;28;20025;-38
2021/10/27 04:01:05;;;;;;;17.60;9.68;;;;;;;9.50;61.95;100613.88;5050339;28;20017;-38
2021/10/27 04:03:30;;;;;;;15.95;10.27;;;;;;;9.35;61.88;100613.78;5050376;28;20028;-38
2021/10/27 04:05:56;;;;;;;17.17;10.48;;;;;;;9.33;62.16;100612.31;5050004;28;20488;-38
2021/10/27 04:08:22;;;;;;;16.35;10.60;;;;;;;9.46;61.98;100611.72;5049781;28;20386;-38
2021/10/27 04:10:47;;;;;;;15.65;10.10;;;;;;;9.64;61.45;100603.50;5049543;28;20032;-38
2021/10/27 04:13:16;;;;;;;18.20;11.15;;;;;;;9.55;62.01;100600.03;5050006;28;20025;-39
2021/10/27 04:15:42;;;;;;;15.95;10.48;;;;;;;9.23;63.04;100603.72;5049935;28;20024;-36
2021/10/27 04:18:07;;;;;;;18.75;10.60;;;;;;;9.33;62.89;100609.66;5049841;28;20361;-36
2021/10/27 04:20:33;;;;;;;19.70;10.48;;;;;;;9.37;62.20;100608.28;5049423;28;20093;-37
2021/10/27 04:22:58;;;;;;;20.55;10.90;;;;;;;9.22;63.36;100620.66;5031623;28;20036;-38
2021/10/27 04:25:24;;;;;;;20.27;11.10;;;;;;;9.22;63.81;100616.16;5042896;28;20094;-37
2021/10/27 04:27:49;;;;;;;22.67;11.45;;;;;;;9.17;63.73;100615.84;5050141;28;20032;-37
2021/10/27 04:30:14;;;;;;;16.92;11.00;;;;;;;9.34;62.52;100612.09;5048592;28;20017;-38
2021/10/27 04:32:43;;;;;;;21.95;10.85;;;;;;;9.05;64.10;100622.56;5048363;28;20060;-38
2021/10/27 04:35:09;;;;;;;22.85;10.98;;;;;;;9.17;64.62;100623.81;5047998;28;20472;-38
2021/10/27 04:37:38;;;;;;;18.65;11.18;;;;;;;9.22;63.34;100618.81;5047420;28;20044;-37
2021/10/27 04:40:05;;;;;;;23.98;10.93;;;;;;;9.25;62.79;100621.13;5046788;28;20090;-38
2021/10/27 04:42:30;;;;;;;62.17;32.30;;;;;;;9.01;63.83;100622.06;5046688;28;20570;-38
2021/10/27 04:44:56;;;;;;;81.35;38.38;;;;;;;9.12;63.47;100615.53;5046681;28;20024;-38
2021/10/27 04:47:21;;;;;;;19.90;12.25;;;;;;;9.29;63.30;100611.81;5046932;28;20476;-38
2021/10/27 04:49:47;;;;;;;15.63;10.50;;;;;;;9.15;63.40;100615.19;5047938;28;20470;-38
2021/10/27 04:52:13;;;;;;;21.13;11.00;;;;;;;9.05;63.87;100617.25;5048072;28;20028;-37
2021/10/27 04:54:40;;;;;;;22.92;11.10;;;;;;;9.03;63.52;100621.91;5047864;28;20405;-38
2021/10/27 04:57:06;;;;;;;19.30;11.02;;;;;;;9.15;63.32;100626.63;5049223;28;20029;-38
2021/10/27 04:59:52;;;;;;;21.35;11.18;;;;;;;8.84;62.98;100570.84;5047458;28;20402;-38
2021/10/27 05:02:17;;;;;;;20.35;11.00;;;;;;;9.16;63.23;100603.59;5048233;28;20102;-38
2021/10/27 05:04:43;;;;;;;19.90;11.20;;;;;;;9.42;62.40;100629.84;5048824;28;20025;-37
2021/10/27 05:07:11;;;;;;;33.38;19.63;;;;;;;9.31;62.70;100631.06;5048618;28;20029;-37
2021/10/27 05:09:36;;;;;;;30.90;17.70;;;;;;;9.41;62.45;100638.00;5048869;28;20060;-37
2021/10/27 05:12:04;;;;;;;22.95;10.90;;;;;;;9.50;62.25;100634.28;5049314;28;20029;-37
2021/10/27 05:14:30;;;;;;;18.00;10.80;;;;;;;9.27;63.48;100635.06;5048995;28;20073;-38
2021/10/27 05:16:55;;;;;;;19.70;11.52;;;;;;;9.15;63.62;100639.91;5049045;28;20400;-38
2021/10/27 05:19:21;;;;;;;16.65;10.98;;;;;;;8.96;63.57;100635.00;5048890;28;20024;-38
2021/10/27 05:21:47;;;;;;;19.20;11.05;;;;;;;8.88;64.39;100635.88;5048954;28;20028;-38
2021/10/27 05:24:13;;;;;;;17.88;11.25;;;;;;;9.11;63.67;100635.97;5049065;28;20017;-38
2021/10/27 05:26:38;;;;;;;18.63;10.88;;;;;;;9.30;62.85;100647.19;5049115;28;20459;-37
2021/10/27 05:29:03;;;;;;;19.35;11.25;;;;;;;9.43;62.72;100649.28;5048564;28;20399;-37
2021/10/27 05:31:29;;;;;;;18.45;11.25;;;;;;;9.44;62.67;100653.56;5048071;28;20328;-38
2021/10/27 05:33:54;;;;;;;18.25;11.25;;;;;;;9.29;62.99;100654.31;5049171;28;20044;-38
2021/10/27 05:36:20;;;;;;;18.65;11.30;;;;;;;9.57;62.33;100659.97;5030980;28;20040;-38
2021/10/27 05:38:45;;;;;;;17.38;11.00;;;;;;;9.63;61.91;100660.28;5047504;28;20051;-38
2021/10/27 05:41:11;;;;;;;16.67;10.43;;;;;;;9.54;62.05;100660.34;5048764;28;20400;-38
2021/10/27 05:43:37;;;;;;;19.30;11.27;;;;;;;9.58;61.66;100664.31;5052143;28;20051;-38
2021/10/27 05:46:02;;;;;;;16.98;11.15;;;;;;;9.65;61.63;100668.91;5052320;28;20084;-37
2021/10/27 05:48:41;;;;;;;18.92;10.70;;;;;;;9.56;61.82;100666.31;5052446;28;20096;-38
2021/10/27 05:56:19;;;;;;;18.55;11.15;;;;;;;9.84;61.07;100688.91;5052357;28;20032;-38
2021/10/27 05:58:45;;;;;;;15.73;11.75;;;;;;;9.84;61.12;100697.69;5052324;28;20075;-38
2021/10/27 06:01:10;;;;;;;21.15;11.70;;;;;;;9.83;61.73;100695.25;5052402;28;20032;-38
2021/10/27 06:03:36;;;;;;;16.92;11.50;;;;;;;9.91;60.89;100703.16;5052244;28;20378;-38
2021/10/27 06:06:02;;;;;;;19.52;11.70;;;;;;;9.95;61.41;100701.78;5051904;28;20035;-38
2021/10/27 06:08:27;;;;;;;23.02;11.50;;;;;;;9.84;60.75;100712.81;5052000;28;20025;-37
2021/10/27 06:10:56;;;;;;;17.95;11.68;;;;;;;10.17;60.27;100716.94;5069683;28;20032;-38
2021/10/27 06:13:22;;;;;;;22.17;11.38;;;;;;;10.28;59.27;100714.88;5072211;28;20036;-38
2021/10/27 06:15:48;;;;;;;18.33;11.88;;;;;;;10.20;60.04;100725.56;5072441;28;20028;-38
2021/10/27 06:18:13;;;;;;;17.58;10.93;;;;;;;10.20;59.80;100728.22;5072218;28;20408;-38
2021/10/27 06:20:39;;;;;;;21.63;12.35;;;;;;;10.22;59.52;100726.22;5072283;28;20021;-38
2021/10/27 06:23:04;;;;;;;20.92;12.20;;;;;;;10.32;59.12;100724.19;5071874;28;20361;-38
2021/10/27 06:25:31;;;;;;;19.98;13.02;;;;;;;10.29;59.90;100730.66;5070202;28;20397;-38
2021/10/27 06:28:08;;;;;;;19.95;12.85;;;;;;;10.58;58.86;100734.44;5071617;28;20021;-38
2021/10/27 06:30:47;;;;;;;21.92;12.82;;;;;;;10.65;58.98;100738.06;5071573;28;20032;-37
2021/10/27 06:33:53;;;;;;;24.27;11.73;;;;;;;10.69;59.62;100739.34;5071157;28;20051;-37
2021/10/27 06:36:12;;;;;;;18.42;11.82;;;;;;;10.80;58.57;100731.94;5068080;28;20052;-37
2021/10/27 06:46:54;;;;;;;23.55;12.57;;;;;;;11.10;58.03;100735.47;5070885;28;20542;-38
2021/10/27 06:49:20;;;;;;;23.60;12.30;;;;;;;11.14;58.18;100739.44;5071193;28;20036;-38
2021/10/27 06:51:45;;;;;;;20.92;11.18;;;;;;;10.85;57.66;100732.22;5071005;28;20036;-37
2021/10/27 06:54:11;;;;;;;17.17;11.30;;;;;;;10.97;58.31;100738.78;5070311;28;20056;-38
2021/10/27 06:56:36;;;;;;;26.15;11.30;;;;;;;10.85;58.96;100734.88;5070815;28;20036;-37
2021/10/27 07:01:51;;;;;;;17.75;10.68;;;;;;;10.86;57.57;100747.19;5070751;28;20039;-38
2021/10/27 07:15:26;;;;;;;20.55;10.45;;;;;;;11.19;56.83;100742.34;5070566;28;20419;-39
2021/10/27 07:17:53;;;;;;;;;;;;;;;11.00;57.82;100741.06;5071281;28;20059;-38
2021/10/27 07:20:19;;;;;;;22.25;10.98;;;;;;;11.48;56.67;100740.69;5070509;28;19914;-36
2021/10/27 07:22:45;;;;;;;15.35;9.23;;;;;;;11.45;60.51;100739.25;5051747;28;20057;-39
2021/10/27 07:25:11;;;;;;;19.92;10.45;;;;;;;11.80;55.34;100743.97;5050424;28;20028;-38
2021/10/27 07:27:36;;;;;;;14.48;9.90;;;;;;;11.77;54.43;100739.03;5050355;28;20090;-38
2021/10/27 07:30:02;;;;;;;18.13;9.88;;;;;;;11.79;54.52;100737.81;5050811;28;20150;-38
2021/10/27 07:32:29;;;;;;;16.48;10.07;;;;;;;11.48;55.15;100743.38;5050125;28;20412;-38
2021/10/27 07:42:39;;;;;;;15.40;9.85;;;;;;;11.90;54.16;100736.56;5050289;28;20464;-38
2021/10/27 07:45:05;;;;;;;15.15;9.75;;;;;;;12.13;52.93;100739.06;5050638;28;20040;-38
2021/10/27 07:47:31;;;;;;;15.25;10.10;;;;;;;12.15;53.67;100733.50;5050408;28;20033;-38
2021/10/27 07:49:56;;;;;;;14.38;10.00;;;;;;;12.21;53.71;100735.44;5050224;28;20144;-38
2021/10/27 07:52:22;;;;;;;14.18;9.35;;;;;;;12.29;52.90;100729.97;5050365;28;20033;-39
2021/10/27 07:54:47;;;;;;;16.15;11.30;;;;;;;12.40;53.63;100726.78;5050114;28;20016;-37
2021/10/27 07:57:13;;;;;;;15.00;10.20;;;;;;;12.40;53.26;100732.13;5048403;28;20147;-39
2021/10/27 07:59:38;;;;;;;15.18;10.02;;;;;;;12.46;53.55;100726.00;5050055;28;20033;-37
2021/10/27 08:02:04;;;;;;;15.88;9.68;;;;;;;12.69;51.65;100723.13;5050030;28;20032;-37
2021/10/27 08:04:30;;;;;;;15.52;9.25;;;;;;;12.79;51.11;100725.47;5049773;28;20489;-38
2021/10/27 08:06:55;;;;;;;13.40;9.48;;;;;;;12.90;50.87;100721.44;5047737;28;20029;-38
2021/10/27 08:09:21;;;;;;;13.73;9.50;;;;;;;12.94;50.58;100719.19;5054497;28;20499;-39
2021/10/27 08:11:48;;;;;;;16.05;9.80;;;;;;;12.79;50.85;100727.31;5054370;28;20059;-39
2021/10/27 08:14:14;;;;;;;14.18;9.70;;;;;;;12.95;50.57;100729.69;5049424;28;20060;-38
2021/10/27 08:16:39;;;;;;;16.30;10.35;;;;;;;12.70;51.01;100729.31;5056833;28;20468;-39
2021/10/27 08:19:05;;;;;;;13.93;8.80;;;;;;;12.85;50.81;100723.84;5056101;28;20488;-38
2021/10/27 08:21:30;;;;;;;16.58;9.10;;;;;;;13.17;50.20;100721.59;5058158;28;20476;-38
2021/10/27 08:23:56;;;;;;;16.15;9.63;;;;;;;13.25;50.58;100724.97;5052152;28;20021;-39
2021/10/27 08:26:25;;;;;;;15.13;9.52;;;;;;;13.45;49.88;100719.72;5057770;28;20028;-40
2021/10/27 08:28:58;;;;;;;13.00;9.27;;;;;;;13.35;48.81;100726.47;5057531;28;20056;-38
2021/10/27 08:31:33;;;;;;;13.52;9.65;;;;;;;13.39;48.81;100730.41;5060182;28;20444;-38
2021/10/27 08:36:24;;;;;;;12.38;8.10;;;;;;;13.09;48.72;100731.41;5056520;28;20138;-39
2021/10/27 08:38:50;;;;;;;15.52;9.13;;;;;;;13.16;49.37;100723.47;5056154;28;20035;-39
2021/10/27 08:41:15;;;;;;;12.50;8.82;;;;;;;13.30;48.89;100727.06;5057843;28;20032;-39
2021/10/27 08:43:41;;;;;;;14.27;8.63;;;;;;;13.75;47.41;100732.81;5049881;28;20057;-37
2021/10/27 08:46:07;;;;;;;10.15;8.02;;;;;;;13.71;47.58;100726.22;5052219;28;20555;-39
2021/10/27 08:48:34;;;;;;;18.38;8.60;;;;;;;13.89;47.50;100726.47;5048601;28;20025;-39
2021/10/27 08:51:01;;;;;;;14.95;8.25;;;;;;;13.92;47.53;100711.91;5047731;28;20480;-38
2021/10/27 08:53:28;;;;;;;15.45;8.90;;;;;;;13.82;47.62;100722.97;5046542;28;20477;-40
2021/10/27 08:55:55;;;;;;;13.98;9.13;;;;;;;13.98;47.68;100719.09;5046630;28;20104;-37
2021/10/27 08:58:31;;;;;;;13.65;8.18;;;;;;;14.51;46.61;100723.72;5045988;28;20126;-38
2021/10/27 09:07:04;;;;;;;9.18;6.65;;;;;;;14.40;45.82;100721.66;5049596;28;20028;-39
2021/10/27 09:34:39;;;;;;;9.50;5.78;;;;;;;15.23;44.14;100694.38;5052748;28;20087;-51
2021/10/27 09:42:49;;;;;;;8.23;5.80;;;;;;;15.68;42.75;100698.97;5051964;28;20373;-52
2021/10/27 10:05:13;;;;;;;7.25;5.95;;;;;;;16.50;41.61;100669.53;5051912;28;20048;-50
2021/10/27 10:07:39;;;;;;;9.73;5.90;;;;;;;16.89;40.62;100670.25;5051651;28;20033;-52
2021/10/27 10:10:06;;;;;;;8.25;5.53;;;;;;;16.95;41.28;100669.34;5051895;28;20475;-49
2021/10/27 10:12:36;;;;;;;8.23;5.45;;;;;;;17.02;39.98;100663.88;5050513;28;20030;-50
2021/10/27 10:15:02;;;;;;;10.35;5.38;;;;;;;16.76;41.21;100655.03;5051323;28;20036;-49
2021/10/27 10:17:28;;;;;;;6.68;5.30;;;;;;;16.92;41.04;100657.16;5051748;28;20029;-51
2021/10/27 10:19:53;;;;;;;8.85;4.20;;;;;;;17.24;39.38;100664.25;5050705;28;20025;-51
2021/10/27 10:22:45;;;;;;;4.82;3.92;;;;;;;17.25;39.31;100655.97;5033662;28;20477;-50
2021/10/27 10:25:20;;;;;;;5.22;4.15;;;;;;;17.27;39.10;100653.88;5049013;28;20049;-50
2021/10/27 10:27:52;;;;;;;6.13;3.70;;;;;;;17.64;39.27;100651.13;5050401;28;20028;-49
2021/10/27 10:30:33;;;;;;;4.63;3.28;;;;;;;17.53;39.31;100651.88;5048426;28;20104;-50
2021/10/27 10:33:11;;;;;;;4.53;3.97;;;;;;;17.40;39.13;100647.50;5051342;28;20041;-49
2021/10/27 11:39:55;;;;;;;4.78;3.58;;;;;;;17.21;42.12;100576.78;5050242;28;20056;-51
2021/10/27 11:45:14;;;;;;;4.72;3.03;;;;;;;17.29;41.65;100568.41;5033590;28;20111;-48
2021/10/27 11:47:42;;;;;;;3.88;3.10;;;;;;;17.16;41.66;100572.06;5030407;28;20408;-51
2021/10/27 11:50:10;;;;;;;5.18;3.22;;;;;;;17.71;41.38;100559.53;5035235;28;20103;-50
2021/10/27 11:52:37;;;;;;;7.90;4.60;;;;;;;17.56;42.19;100568.03;5037600;28;20028;-48
2021/10/27 11:55:07;;;;;;;6.45;4.72;;;;;;;17.67;42.69;100566.38;5030656;28;20026;-48
2021/10/27 11:57:33;;;;;;;6.60;4.90;;;;;;;17.52;41.43;100558.78;5029972;28;20021;-50
2021/10/27 11:59:59;;;;;;;6.88;4.80;;;;;;;17.65;41.55;100557.72;5029922;28;20021;-49
2021/10/27 12:02:25;;;;;;;5.65;4.00;;;;;;;17.56;42.52;100554.56;5029907;28;20027;-49
2021/10/27 12:04:54;;;;;;;6.72;4.10;;;;;;;17.78;41.62;100552.13;5029788;28;20068;-50
2021/10/27 12:07:39;;;;;;;7.03;4.00;;;;;;;17.70;41.04;100550.59;5029677;28;20021;-51
2021/10/27 12:10:24;;;;;;;5.35;4.18;;;;;;;17.30;43.40;100553.06;5040606;28;20108;-49
2021/10/27 12:12:56;;;;;;;6.47;3.75;;;;;;;17.49;42.27;100546.56;5034730;28;20108;-49
2021/10/27 12:18:09;;;;;;;5.80;4.20;;;;;;;17.37;41.93;100556.50;5049080;28;20032;-51
2021/10/27 12:20:42;;;;;;;5.70;3.65;;;;;;;17.17;41.62;100549.53;5048925;28;20032;-51
2021/10/27 12:23:14;;;;;;;8.13;4.70;;;;;;;17.27;41.59;100551.66;5049685;28;20098;-48
2021/10/27 12:25:40;;;;;;;5.78;3.60;;;;;;;17.48;41.71;100552.22;5047611;28;20502;-50
2021/10/27 12:28:20;;;;;;;8.95;5.50;;;;;;;17.46;41.87;100549.75;5049251;28;20068;-48
2021/10/27 12:30:46;;;;;;;6.97;4.38;;;;;;;17.08;43.83;100545.50;5049121;28;20413;-49
2021/10/27 12:33:12;;;;;;;4.03;3.30;;;;;;;17.20;42.77;100557.13;5048221;28;20079;-52
2021/10/27 12:35:38;;;;;;;5.15;3.60;;;;;;;17.57;41.77;100548.13;5047530;28;20393;-49
2021/10/27 12:38:16;;;;;;;5.72;3.50;;;;;;;17.38;42.14;100553.56;5048945;28;20037;-50
2021/10/27 12:40:43;;;;;;;5.68;3.60;;;;;;;17.43;41.80;100550.19;5049166;28;20025;-49
2021/10/27 12:43:11;;;;;;;5.43;3.63;;;;;;;17.06;42.83;100558.34;5049079;28;20094;-49
2021/10/27 12:45:51;;;;;;;4.88;3.50;;;;;;;16.95;42.90;100551.06;5049450;28;20040;-48
2021/10/27 12:48:21;;;;;;;4.88;3.60;;;;;;;16.79;42.81;100547.91;5049205;28;20029;-49
2021/10/27 12:51:01;;;;;;;4.20;3.40;;;;;;;17.13;42.86;100553.69;5048633;28;20040;-48
2021/10/27 12:53:43;;;;;;;4.60;3.55;;;;;;;17.32;42.23;100554.47;5055171;28;20144;-48
2021/10/27 12:56:22;;;;;;;4.57;2.97;;;;;;;17.14;42.25;100563.41;5054915;28;20492;-49
2021/10/27 12:58:50;;;;;;;4.50;3.25;;;;;;;17.49;41.67;100560.03;5055221;28;20370;-48
2021/10/27 13:12:04;;;;;;;5.43;3.60;;;;;;;16.89;43.66;100570.78;5055348;28;20051;-51
2021/10/27 13:20:02;;;;;;;3.42;2.40;;;;;;;16.35;44.24;100578.53;5055961;28;20109;-48
2021/10/27 13:30:29;;;;;;;3.28;2.78;;;;;;;16.00;44.08;100550.34;5055769;28;20036;-51
2021/10/27 13:32:57;;;;;;;3.33;2.75;;;;;;;16.36;44.96;100575.63;5054853;28;20365;-48
2021/10/27 13:35:23;;;;;;;5.18;3.40;;;;;;;16.37;44.95;100574.59;5055389;28;20137;-50
2021/10/27 13:37:48;;;;;;;5.05;3.17;;;;;;;16.67;43.28;100581.09;5054860;28;20087;-48
2021/10/27 13:40:14;;;;;;;5.57;3.38;;;;;;;16.49;44.10;100576.56;5055327;28;20049;-50
2021/10/27 14:06:47;;;;;;;4.60;3.35;;;;;;;16.10;45.29;100567.81;5050526;28;20456;-37
2021/10/27 14:09:33;;;;;;;;;;;;;;;16.13;45.37;100572.75;5052454;28;20108;-39
2021/10/27 14:12:05;;;;;;;4.45;3.65;;;;;;;16.10;45.92;100570.50;5046594;28;19959;-38
2021/10/27 14:18:14;;;;;;;5.40;3.47;;;;;;;16.49;45.10;100572.00;5011233;28;20119;-38
2021/10/27 15:20:22;;;;;;;9.43;5.10;;;;;;;14.37;51.54;100580.94;5050893;28;20086;-38
2021/10/27 15:31:09;;;;;;;6.60;4.75;;;;;;;13.87;53.44;100597.44;5050638;28;20086;-38
2021/10/27 15:36:26;;;;;;;9.45;5.07;;;;;;;13.72;53.30;100604.81;5050797;28;20025;-38
2021/10/27 15:41:49;;;;;;;9.73;5.53;;;;;;;13.68;54.22;100604.41;5050315;28;20122;-38
2021/10/27 15:52:28;;;;;;;10.18;5.63;;;;;;;14.70;55.41;100619.47;5018136;28;20203;-38
2021/10/27 15:54:54;;;;;;;9.30;5.43;;;;;;;14.34;52.72;100621.56;5030455;28;20068;-38
2021/10/27 15:57:19;;;;;;;8.80;5.70;;;;;;;13.89;53.79;100624.81;5029717;28;20382;-39
2021/10/27 15:59:46;;;;;;;12.27;6.18;;;;;;;13.65;54.35;100622.69;5030891;28;20103;-38
2021/10/27 16:02:12;;;;;;;8.77;5.95;;;;;;;13.49;55.23;100623.91;5037193;28;20025;-37
2021/10/27 16:04:38;;;;;;;9.80;6.13;;;;;;;13.67;54.47;100626.03;5049228;28;20058;-38
2021/10/27 16:07:07;;;;;;;9.00;5.95;;;;;;;13.77;54.03;100636.34;5050226;28;20148;-39
2021/10/27 16:09:38;;;;;;;10.60;6.20;;;;;;;13.57;55.40;100639.75;5056730;28;20024;-38
2021/10/27 16:12:04;;;;;;;9.80;6.32;;;;;;;13.63;54.62;100638.13;5070421;28;20044;-50
2021/10/27 16:14:30;;;;;;;9.25;6.00;;;;;;;13.27;55.83;100634.69;5069950;28;20637;-49
2021/10/27 16:16:56;;;;;;;10.50;7.03;;;;;;;13.16;56.14;100640.63;5070075;28;20028;-52